Terminal Aerodrome Forecast
Issued by NWS Atlanta, GA

Home | Current Version | Previous Version | Text Only | Print | Product List | Glossary On
Versions: 1 2 3 4 5 6 7 8 9 10 11 12 13 14 15 16 17 18 19
000
FTUS42 KFFC 280520
TAFCSG
TAF
KCSG 280520Z 2806/0106 02007KT P6SM FEW250
     FM280900 05006KT P6SM SCT110
     FM281500 08011G18KT P6SM SCT050 BKN100
     FM281800 09010G15KT P6SM BKN050
     FM282100 09008KT P6SM OVC035
     FM010100 06005KT 4SM -RA BKN015=

USA.gov is the U.S. government's official web portal to all federal, state and local government web resources and services.